Time;durP1;ratioP1;P1;durP2;ratioP2;P2;SDS_P1;SDS_P2;PMS_P1;PMS_P2;Temp;Humidity;BMP_temperature;BMP_pressure;BME280_temperature;BME280_humidity;BME280_pressure;Samples;Min_cycle;Max_cycle;Signal;HPM_P1;HPM_P2
2022/05/25 00:02:24;;;;;;;6.30;3.97;;;487.20;2380.80;;;;;;5010389;28;20396;-58
2022/05/25 00:04:51;;;;;;;7.32;4.55;;;487.30;2380.80;;;;;;5009994;28;20029;-58
2022/05/25 00:07:18;;;;;;;6.05;4.03;;;487.30;2380.80;;;;;;5010423;28;20050;-58
2022/05/25 00:09:44;;;;;;;5.55;3.38;;;487.30;2380.80;;;;;;5010357;28;20030;-58
2022/05/25 00:12:13;;;;;;;6.03;4.80;;;487.20;2380.80;;;;;;5010121;28;20361;-60
2022/05/25 00:14:39;;;;;;;7.55;4.50;;;487.20;2380.80;;;;;;5010218;28;20034;-60
2022/05/25 00:17:05;;;;;;;9.00;4.18;;;487.20;2380.80;;;;;;5010263;28;20125;-59
2022/05/25 00:22:15;;;;;;;4.85;3.53;;;487.20;2380.80;;;;;;5010723;28;20045;-58
2022/05/25 00:24:41;;;;;;;8.25;3.97;;;487.20;2380.80;;;;;;5009803;28;20030;-59
2022/05/25 00:27:07;;;;;;;6.60;3.70;;;487.20;2380.80;;;;;;5009857;28;20026;-59
2022/05/25 00:29:33;;;;;;;5.07;3.53;;;487.20;2380.80;;;;;;5010218;28;20022;-59
2022/05/25 00:31:59;;;;;;;7.32;3.92;;;487.20;2380.80;;;;;;5010122;28;20476;-59
2022/05/25 00:34:25;;;;;;;6.95;4.45;;;487.20;2380.80;;;;;;5011415;28;20029;-60
2022/05/25 00:36:51;;;;;;;6.35;3.58;;;487.20;2380.80;;;;;;5013951;28;20049;-58
2022/05/25 00:39:17;;;;;;;5.97;4.00;;;487.00;2380.80;;;;;;5014002;28;20033;-58
2022/05/25 00:41:43;;;;;;;6.88;3.65;;;487.00;2380.80;;;;;;5013919;28;20105;-58
2022/05/25 00:44:09;;;;;;;4.72;3.30;;;487.10;2380.80;;;;;;5013848;28;20106;-58
2022/05/25 00:46:37;;;;;;;4.53;2.97;;;487.10;2380.80;;;;;;5014076;28;20054;-59
2022/05/25 00:49:10;;;;;;;8.10;3.33;;;487.10;2380.80;;;;;;5013946;28;20104;-57
2022/05/25 00:51:41;;;;;;;5.68;3.40;;;487.00;2380.80;;;;;;5014181;28;20079;-59
2022/05/25 00:54:19;;;;;;;4.85;3.53;;;487.00;2380.80;;;;;;5013548;28;20056;-58
2022/05/25 00:56:47;;;;;;;5.47;3.22;;;487.00;2380.80;;;;;;5013768;28;20104;-59
2022/05/25 00:59:17;;;;;;;5.45;3.45;;;487.00;2380.80;;;;;;5012956;28;20037;-58
2022/05/25 01:01:44;;;;;;;5.95;3.85;;;487.00;2380.80;;;;;;5013612;28;20034;-59
2022/05/25 01:04:10;;;;;;;5.20;3.20;;;486.90;2380.80;;;;;;5013633;28;20018;-59
2022/05/25 01:06:58;;;;;;;4.80;3.38;;;487.00;2380.80;;;;;;5013613;28;20018;-59
2022/05/25 01:09:42;;;;;;;6.07;3.60;;;487.00;2380.80;;;;;;5013789;28;20045;-58
2022/05/25 01:12:13;;;;;;;7.65;3.88;;;486.90;2380.80;;;;;;5013294;28;20053;-58
2022/05/25 01:14:39;;;;;;;5.22;3.17;;;486.80;2380.80;;;;;;5013313;28;20022;-58
2022/05/25 01:17:20;;;;;;;4.97;3.20;;;486.80;2380.80;;;;;;5013379;28;20056;-58
2022/05/25 01:20:11;;;;;;;6.07;3.72;;;486.80;2380.80;;;;;;5013367;28;20489;-58
2022/05/25 01:22:55;;;;;;;5.68;3.20;;;486.70;2380.80;;;;;;4999050;28;20495;-59
2022/05/25 01:25:39;;;;;;;5.28;3.47;;;486.70;2380.80;;;;;;5013064;28;20074;-59
2022/05/25 01:28:37;;;;;;;4.28;3.00;;;486.80;2380.80;;;;;;5013191;28;20030;-58
2022/05/25 01:31:11;;;;;;;4.57;2.95;;;486.80;2380.80;;;;;;5013350;28;20049;-60
2022/05/25 01:33:47;;;;;;;5.65;3.72;;;486.80;2380.80;;;;;;5013000;28;20026;-59
2022/05/25 01:36:27;;;;;;;6.63;3.42;;;486.70;2380.80;;;;;;5013171;28;20091;-59
2022/05/25 01:39:05;;;;;;;6.57;3.17;;;486.70;2380.80;;;;;;5013175;28;20021;-58
2022/05/25 01:42:13;;;;;;;5.03;2.70;;;486.70;2380.80;;;;;;5012689;28;20041;-58
2022/05/25 01:44:44;;;;;;;4.03;2.65;;;486.80;2380.80;;;;;;4914233;29;20180;-58
2022/05/25 01:47:10;;;;;;;6.50;3.53;;;486.80;2380.80;;;;;;4914222;29;20040;-59
2022/05/25 01:49:48;;;;;;;4.43;2.83;;;486.70;2380.80;;;;;;4914244;29;20061;-59
2022/05/25 01:52:24;;;;;;;4.80;2.67;;;486.70;2380.80;;;;;;4914127;29;20518;-59
2022/05/25 01:54:56;;;;;;;5.38;3.70;;;486.70;2380.80;;;;;;4913993;29;20035;-58
2022/05/25 01:57:26;;;;;;;5.90;2.97;;;486.70;2380.80;;;;;;4913953;29;20755;-58
2022/05/25 01:59:52;;;;;;;5.25;2.72;;;486.70;2380.80;;;;;;4914156;29;20047;-56
2022/05/25 02:05:08;;;;;;;5.93;3.08;;;486.50;2380.80;;;;;;4914228;29;20046;-58
2022/05/25 02:07:49;;;;;;;12.43;3.40;;;486.60;2380.80;;;;;;4913995;29;20032;-57
2022/05/25 02:11:10;;;;;;;5.55;3.45;;;486.60;2380.80;;;;;;4913999;29;20270;-57
2022/05/25 02:13:54;;;;;;;5.60;3.25;;;486.60;2380.80;;;;;;4857563;29;20136;-59
2022/05/25 02:16:40;;;;;;;7.05;3.10;;;486.60;2380.80;;;;;;4857541;29;20408;-58
2022/05/25 02:19:17;;;;;;;5.90;3.40;;;486.60;2380.80;;;;;;4927697;29;20126;-58
2022/05/25 02:21:45;;;;;;;4.85;2.95;;;486.50;2380.80;;;;;;4952003;29;20540;-58
2022/05/25 02:24:28;;;;;;;6.10;3.50;;;486.50;2380.80;;;;;;4951445;29;20556;-58
2022/05/25 02:27:03;;;;;;;5.80;3.43;;;486.50;2380.80;;;;;;4951535;29;20114;-59
2022/05/25 02:29:42;;;;;;;5.57;3.30;;;461.70;2380.80;;;;;;4951546;29;20368;-59
2022/05/25 02:32:48;;;;;;;7.40;4.20;;;461.70;2380.80;;;;;;4951382;29;20019;-58
2022/05/25 02:35:16;;;;;;;4.85;2.90;;;461.70;2380.80;;;;;;4932561;29;20032;-58
2022/05/25 02:37:43;;;;;;;5.80;2.88;;;461.70;2380.80;;;;;;4932240;29;20048;-59
2022/05/25 02:40:10;;;;;;;5.32;3.35;;;461.70;2380.80;;;;;;4932106;29;20024;-58
2022/05/25 02:42:41;;;;;;;8.02;3.88;;;486.40;2380.80;;;;;;4932290;29;20508;-60
2022/05/25 02:45:08;;;;;;;5.10;3.10;;;461.70;2380.80;;;;;;4932344;29;20120;-57
2022/05/25 02:47:34;;;;;;;6.03;3.00;;;486.40;2380.80;;;;;;4932312;29;20023;-60
2022/05/25 02:50:00;;;;;;;4.88;3.10;;;486.40;2380.80;;;;;;4941556;29;20178;-58
2022/05/25 02:52:27;;;;;;;6.45;3.08;;;461.70;2380.80;;;;;;4951340;29;20554;-58
2022/05/25 02:54:53;;;;;;;6.85;3.38;;;461.70;2380.80;;;;;;4951214;29;20525;-58
2022/05/25 02:57:19;;;;;;;6.20;3.30;;;461.70;2380.80;;;;;;4950332;28;20055;-58
2022/05/25 02:59:44;;;;;;;7.03;3.33;;;461.70;2380.80;;;;;;4950907;29;20027;-57
2022/05/25 03:02:10;;;;;;;5.75;3.50;;;461.60;2380.80;;;;;;4950045;29;20805;-59
2022/05/25 03:04:37;;;;;;;5.50;3.30;;;461.70;2380.80;;;;;;4950885;29;20055;-58
2022/05/25 03:07:04;;;;;;;8.00;3.75;;;461.60;2380.80;;;;;;4951062;29;20058;-57
2022/05/25 03:09:30;;;;;;;6.25;3.63;;;461.40;2380.80;;;;;;4988594;28;20038;-58
2022/05/25 03:11:55;;;;;;;8.25;3.72;;;461.40;2380.80;;;;;;5011481;28;20401;-58
2022/05/25 03:14:21;;;;;;;7.25;3.47;;;461.50;2380.80;;;;;;5011276;28;20437;-58
2022/05/25 03:16:47;;;;;;;8.82;3.58;;;461.60;2380.80;;;;;;5010871;28;20034;-58
2022/05/25 03:19:13;;;;;;;6.13;3.30;;;461.60;2380.80;;;;;;5011286;28;20109;-59
2022/05/25 03:21:39;;;;;;;6.13;3.75;;;461.50;2380.80;;;;;;5011029;28;20464;-58
2022/05/25 03:24:04;;;;;;;8.40;3.70;;;461.60;2380.80;;;;;;5011120;28;20037;-60
2022/05/25 03:26:31;;;;;;;6.05;3.53;;;461.70;2380.80;;;;;;5010514;28;20108;-59
2022/05/25 03:28:57;;;;;;;6.15;3.85;;;461.70;2380.80;;;;;;5010689;28;20460;-59
2022/05/25 03:31:23;;;;;;;5.70;3.45;;;486.40;2380.80;;;;;;5011402;28;20029;-58
2022/05/25 03:33:48;;;;;;;10.93;4.05;;;486.50;2380.80;;;;;;5011010;28;20476;-59
2022/05/25 03:36:14;;;;;;;8.63;3.95;;;486.60;2380.80;;;;;;5010783;28;20091;-59
2022/05/25 03:38:40;;;;;;;5.13;3.63;;;486.70;2380.80;;;;;;5010836;28;20022;-58
2022/05/25 03:41:05;;;;;;;4.97;3.60;;;486.80;2380.80;;;;;;5010810;28;20469;-58
2022/05/25 03:43:37;;;;;;;7.50;4.25;;;486.90;2380.80;;;;;;5010750;28;20164;-59
2022/05/25 03:46:03;;;;;;;6.82;3.70;;;487.00;2380.80;;;;;;5010742;28;20427;-59
2022/05/25 03:48:29;;;;;;;6.13;3.78;;;487.00;2380.80;;;;;;5010646;28;20025;-59
2022/05/25 03:50:55;;;;;;;4.90;3.22;;;487.00;2380.80;;;;;;5010642;28;20032;-59
2022/05/25 03:53:20;;;;;;;6.40;3.92;;;486.80;2380.80;;;;;;5010470;28;20463;-58
2022/05/25 03:55:47;;;;;;;6.35;4.25;;;487.00;2380.80;;;;;;5010260;28;20046;-58
2022/05/25 03:58:13;;;;;;;5.57;3.50;;;487.10;2380.80;;;;;;5010030;28;20038;-59
2022/05/25 04:00:38;;;;;;;4.75;2.85;;;487.30;2380.80;;;;;;5010378;28;20080;-60
2022/05/25 04:03:04;;;;;;;5.07;3.40;;;487.30;2380.80;;;;;;5010580;28;20029;-58
2022/05/25 04:05:32;;;;;;;7.40;3.13;;;512.00;2380.80;;;;;;5010196;28;20026;-58
2022/05/25 04:07:58;;;;;;;5.70;3.03;;;512.30;2380.80;;;;;;5010125;28;20026;-59
2022/05/25 04:10:25;;;;;;;5.05;3.25;;;512.70;2380.80;;;;;;5009812;28;20083;-60
2022/05/25 04:12:51;;;;;;;5.68;3.08;;;537.70;2406.40;;;;;;5010267;28;20049;-58
2022/05/25 04:15:23;;;;;;;4.60;2.97;;;538.20;2406.40;;;;;;5010309;28;20487;-58
2022/05/25 04:17:49;;;;;;;5.22;3.47;;;538.50;2406.40;;;;;;5010261;28;20038;-60
2022/05/25 04:20:17;;;;;;;5.20;3.10;;;563.40;2432.00;;;;;;5012469;28;20041;-60
2022/05/25 04:22:43;;;;;;;4.00;2.80;;;563.70;2432.00;;;;;;5009377;28;20088;-61
2022/05/25 04:25:11;;;;;;;7.00;3.45;;;563.90;2432.00;;;;;;5009111;28;20392;-60
2022/05/25 04:27:39;;;;;;;5.40;2.92;;;563.80;2432.00;;;;;;5009045;28;20025;-59
2022/05/25 04:30:06;;;;;;;6.70;4.00;;;588.80;2432.00;;;;;;5009556;28;20384;-59
2022/05/25 04:32:32;;;;;;;5.82;3.45;;;564.10;2432.00;;;;;;5009368;28;20026;-58
2022/05/25 04:34:58;;;;;;;7.10;3.63;;;589.20;2432.00;;;;;;5009032;28;20092;-58
2022/05/25 04:40:13;;;;;;;6.90;4.75;;;665.70;2227.20;;;;;;5009371;28;20037;-58
2022/05/25 04:42:40;;;;;;;5.93;3.33;;;717.70;1868.80;;;;;;5009057;28;20026;-60
2022/05/25 04:45:06;;;;;;;7.75;4.88;;;742.80;1766.40;;;;;;5009240;28;20022;-59
2022/05/25 04:47:34;;;;;;;4.93;3.00;;;768.10;1689.60;;;;;;5009229;28;20037;-59
2022/05/25 04:50:00;;;;;;;6.68;3.85;;;819.30;1536.00;;;;;;5009058;28;20461;-59
2022/05/25 04:52:26;;;;;;;5.93;3.85;;;819.80;1484.80;;;;;;5009057;28;20030;-59
2022/05/25 04:54:52;;;;;;;5.63;3.50;;;845.00;1459.20;;;;;;5009117;28;20034;-60
2022/05/25 04:57:20;;;;;;;9.65;4.38;;;845.70;1408.00;;;;;;5008985;28;20037;-61
2022/05/25 04:59:51;;;;;;;7.35;4.07;;;870.50;1356.80;;;;;;5009085;28;21006;-60
2022/05/25 05:02:17;;;;;;;7.82;3.65;;;871.30;1305.60;;;;;;5009001;28;20087;-60
2022/05/25 05:04:44;;;;;;;5.18;4.07;;;870.50;1331.20;;;;;;5009357;28;20028;-61
2022/05/25 05:07:11;;;;;;;4.85;4.10;;;870.70;1305.60;;;;;;5012345;28;20531;-62
2022/05/25 05:09:39;;;;;;;5.97;3.80;;;896.50;1203.20;;;;;;5028189;28;20427;-61
2022/05/25 05:12:05;;;;;;;5.88;3.70;;;922.20;1177.60;;;;;;5015203;28;20037;-61
2022/05/25 05:14:31;;;;;;;5.82;4.28;;;948.00;1126.40;;;;;;5028347;28;20037;-61
2022/05/25 05:17:03;;;;;;;6.22;4.10;;;972.80;1126.40;;;;;;5025252;28;20034;-63
2022/05/25 05:19:29;;;;;;;5.25;4.53;;;973.60;1100.80;;;;;;5028417;28;20044;-64
2022/05/25 05:21:57;;;;;;;7.50;5.05;;;998.60;1100.80;;;;;;5027316;28;20022;-63
2022/05/25 05:24:27;;;;;;;6.60;5.25;;;973.40;1100.80;;;;;;5013556;28;20044;-63
2022/05/25 05:26:53;;;;;;;7.50;5.00;;;948.10;1126.40;;;;;;5025984;28;20037;-63
2022/05/25 05:29:19;;;;;;;5.70;5.10;;;947.80;1126.40;;;;;;5019085;28;20033;-64
2022/05/25 05:31:45;;;;;;;6.53;5.03;;;973.50;1100.80;;;;;;5019593;28;20026;-64
2022/05/25 05:34:11;;;;;;;5.75;5.22;;;1024.60;1024.00;;;;;;5022247;28;20770;-64
2022/05/25 05:36:40;;;;;;;7.45;5.40;;;999.10;1075.20;;;;;;5020811;28;20168;-64
2022/05/25 05:39:09;;;;;;;5.25;4.85;;;1024.30;1049.60;;;;;;5020785;28;20207;-67
2022/05/25 05:41:46;;;;;;;7.25;5.60;;;1050.40;998.40;;;;;;5016096;28;20029;-67
2022/05/25 05:44:16;;;;;;;6.80;5.28;;;1076.10;972.80;;;;;;5031794;28;20166;-65
2022/05/25 05:46:43;;;;;;;5.18;4.78;;;1075.40;1024.00;;;;;;5031854;28;20087;-66
2022/05/25 05:49:11;;;;;;;5.95;5.22;;;1101.70;998.40;;;;;;5028745;28;20038;-65
2022/05/25 05:51:39;;;;;;;7.55;5.30;;;1126.80;972.80;;;;;;5021825;28;20098;-66
2022/05/25 05:54:05;;;;;;;6.20;5.70;;;1152.40;921.60;;;;;;5012717;28;20029;-59
2022/05/25 05:56:34;;;;;;;6.65;6.05;;;1127.00;947.20;;;;;;5031422;28;20044;-60
2022/05/25 05:59:01;;;;;;;7.57;6.82;;;1126.60;972.80;;;;;;5031754;28;20026;-59
2022/05/25 06:01:27;;;;;;;7.53;6.93;;;1152.20;921.60;;;;;;5032412;28;20028;-60
2022/05/25 06:03:52;;;;;;;7.20;6.70;;;1152.20;921.60;;;;;;5032567;28;20025;-60
2022/05/25 06:06:18;;;;;;;6.85;6.20;;;1152.40;947.20;;;;;;5032393;28;20037;-58
2022/05/25 06:08:46;;;;;;;9.73;6.88;;;1126.50;998.40;;;;;;5032277;28;20104;-59
2022/05/25 06:11:16;;;;;;;7.88;7.28;;;1101.30;972.80;;;;;;5032220;28;20104;-59
2022/05/25 06:13:43;;;;;;;8.30;7.68;;;1126.50;998.40;;;;;;5032095;28;20074;-59
2022/05/25 06:21:37;;;;;;;7.70;7.10;;;1178.00;896.00;;;;;;5032121;28;20116;-59
2022/05/25 06:24:03;;;;;;;7.97;7.25;;;1177.70;896.00;;;;;;5031848;28;20057;-59
2022/05/25 06:26:30;;;;;;;8.57;7.78;;;1127.30;947.20;;;;;;5031573;28;20049;-59
2022/05/25 06:29:00;;;;;;;9.82;7.57;;;;;;;;;;5031919;28;20104;-61
2022/05/25 06:31:27;;;;;;;8.40;7.75;;;1177.80;870.40;;;;;;5031534;28;20032;-59
2022/05/25 06:33:53;;;;;;;9.57;8.70;;;1228.80;844.80;;;;;;5031963;28;20026;-60
2022/05/25 06:36:24;;;;;;;9.63;8.82;;;1204.10;819.20;;;;;;5031551;28;20041;-61
2022/05/25 06:38:51;;;;;;;9.03;8.43;;;1229.20;844.80;;;;;;5031714;28;20022;-58
2022/05/25 06:41:17;;;;;;;9.20;8.43;;;1203.30;870.40;;;;;;5031831;28;20259;-60
2022/05/25 06:43:43;;;;;;;8.43;7.53;;;1228.90;870.40;;;;;;5031601;28;20053;-60
2022/05/25 06:46:11;;;;;;;7.68;7.15;;;1229.20;870.40;;;;;;5031493;28;20392;-60
2022/05/25 06:48:37;;;;;;;8.30;7.70;;;1203.60;870.40;;;;;;5031233;28;20021;-59
2022/05/25 06:51:14;;;;;;;10.20;9.50;;;1229.00;870.40;;;;;;5031574;28;20037;-60
2022/05/25 06:53:40;;;;;;;10.27;9.10;;;1228.80;870.40;;;;;;5031283;28;20035;-60
2022/05/25 06:56:06;;;;;;;9.90;9.13;;;1228.80;870.40;;;;;;5031407;28;20124;-59
2022/05/25 06:58:33;;;;;;;11.05;10.35;;;1229.30;844.80;;;;;;5031255;28;20029;-59
2022/05/25 07:00:59;;;;;;;9.90;9.27;;;1229.30;844.80;;;;;;5031072;28;20024;-60
2022/05/25 07:03:25;;;;;;;9.38;8.68;;;1229.20;844.80;;;;;;5031087;28;20078;-60
2022/05/25 07:05:52;;;;;;;9.65;8.95;;;1203.80;844.80;;;;;;5031129;28;20036;-61
2022/05/25 07:08:18;;;;;;;9.88;9.07;;;1203.60;844.80;;;;;;5030919;28;20037;-61
2022/05/25 07:10:47;;;;;;;11.65;9.98;;;1228.80;844.80;;;;;;5030935;28;20026;-61
2022/05/25 07:13:15;;;;;;;10.65;9.77;;;1229.40;844.80;;;;;;5030856;28;20061;-60
2022/05/25 07:15:42;;;;;;;8.93;8.20;;;1229.70;819.20;;;;;;5030664;28;20045;-60
2022/05/25 07:18:07;;;;;;;10.85;9.93;;;1203.40;870.40;;;;;;5030634;28;20071;-61
2022/05/25 07:20:33;;;;;;;8.43;7.72;;;1178.30;844.80;;;;;;5030967;28;20025;-61
2022/05/25 07:22:59;;;;;;;10.70;8.50;;;1203.30;819.20;;;;;;5030550;28;20026;-60
2022/05/25 07:25:25;;;;;;;9.05;8.30;;;1203.80;793.60;;;;;;5030632;28;20102;-60
2022/05/25 07:27:51;;;;;;;9.55;8.75;;;1178.30;819.20;;;;;;5030695;28;20028;-58
2022/05/25 07:30:17;;;;;;;9.32;8.73;;;1228.90;793.60;;;;;;5030718;28;20025;-60
2022/05/25 07:32:44;;;;;;;9.27;8.70;;;1228.90;793.60;;;;;;5030884;28;20021;-61
2022/05/25 07:35:12;;;;;;;9.13;8.30;;;1228.90;742.40;;;;;;5030355;28;20036;-59
2022/05/25 07:37:41;;;;;;;8.75;8.20;;;1203.30;742.40;;;;;;5030326;28;20534;-59
2022/05/25 07:40:43;;;;;;;9.85;9.05;;;1229.70;742.40;;;;;;5030324;28;20052;-60
2022/05/25 07:43:14;;;;;;;9.63;8.75;;;1229.20;691.20;;;;;;5029555;28;20052;-60
2022/05/25 07:45:40;;;;;;;8.85;8.25;;;1229.40;691.20;;;;;;5030510;28;20108;-59
2022/05/25 07:48:06;;;;;;;8.55;7.85;;;1229.50;716.80;;;;;;5030637;28;20064;-59
2022/05/25 07:50:33;;;;;;;8.52;7.90;;;1229.50;691.20;;;;;;5030520;28;20141;-60
2022/05/25 07:53:01;;;;;;;9.98;9.20;;;1255.00;691.20;;;;;;5030014;28;20471;-60
2022/05/25 07:55:27;;;;;;;9.30;8.73;;;1280.50;665.60;;;;;;5030465;28;20375;-60
2022/05/25 07:57:53;;;;;;;9.45;8.80;;;1254.90;691.20;;;;;;5030671;28;20057;-59
2022/05/25 08:00:24;;;;;;;9.30;8.43;;;1229.70;665.60;;;;;;5030361;28;20506;-60
2022/05/25 08:05:47;;;;;;;9.73;9.00;;;1229.40;691.20;;;;;;5030144;28;20041;-59
2022/05/25 08:08:20;;;;;;;8.50;7.88;;;1280.50;691.20;;;;;;5030186;28;20116;-60
2022/05/25 08:11:00;;;;;;;9.65;8.70;;;1280.00;691.20;;;;;;5030330;28;20083;-58
2022/05/25 08:13:27;;;;;;;8.65;7.75;;;1229.20;716.80;;;;;;5030191;28;20017;-59
2022/05/25 08:15:53;;;;;;;8.38;7.55;;;1203.30;768.00;;;;;;5030124;28;20075;-59
2022/05/25 08:18:19;;;;;;;6.97;6.40;;;1127.00;819.20;;;;;;5029851;28;20375;-59
2022/05/25 08:20:45;;;;;;;7.18;5.07;;;1075.70;793.60;;;;;;5030171;28;20056;-60
2022/05/25 08:23:15;;;;;;;6.90;4.80;;;1024.90;844.80;;;;;;5029899;28;20133;-60
2022/05/25 08:25:42;;;;;;;5.20;4.68;;;1024.10;870.40;;;;;;5029664;28;20049;-61
2022/05/25 08:28:08;;;;;;;5.18;4.70;;;1024.00;921.60;;;;;;5029881;28;20040;-59
2022/05/25 08:30:37;;;;;;;6.85;4.20;;;999.00;896.00;;;;;;5029911;28;20463;-59
2022/05/25 08:33:03;;;;;;;5.07;4.55;;;973.70;870.40;;;;;;5029882;28;20357;-59
2022/05/25 08:35:30;;;;;;;4.95;4.40;;;973.10;921.60;;;;;;5029579;28;20045;-60
2022/05/25 08:37:57;;;;;;;6.40;4.05;;;973.20;921.60;;;;;;5030006;28;20037;-58
2022/05/25 08:40:24;;;;;;;5.85;3.72;;;972.80;921.60;;;;;;5030084;28;20024;-58
2022/05/25 08:43:09;;;;;;;4.97;4.35;;;947.90;921.60;;;;;;5029942;28;20083;-58
2022/05/25 08:45:49;;;;;;;13.40;4.45;;;948.10;947.20;;;;;;5029803;28;20021;-60
2022/05/25 08:48:17;;;;;;;4.18;3.10;;;947.80;947.20;;;;;;5029848;28;20033;-59
2022/05/25 08:50:46;;;;;;;6.18;3.95;;;947.40;947.20;;;;;;5029728;28;20025;-60
2022/05/25 08:53:13;;;;;;;5.40;4.65;;;947.30;947.20;;;;;;5029613;28;20068;-60
2022/05/25 08:55:58;;;;;;;6.03;4.13;;;922.50;972.80;;;;;;5031104;28;20068;-60
2022/05/25 08:58:49;;;;;;;6.03;4.35;;;922.50;972.80;;;;;;5033786;28;20068;-60
2022/05/25 09:01:25;;;;;;;4.93;4.50;;;947.40;972.80;;;;;;5033607;28;20134;-58
2022/05/25 09:04:05;;;;;;;4.50;4.00;;;947.40;947.20;;;;;;5033579;28;20021;-60
2022/05/25 09:06:53;;;;;;;7.40;3.80;;;922.50;972.80;;;;;;5033172;28;20033;-60
2022/05/25 09:09:25;;;;;;;4.78;3.58;;;922.50;972.80;;;;;;5033307;28;20020;-59
2022/05/25 09:11:58;;;;;;;6.38;3.42;;;922.00;972.80;;;;;;5033299;28;20029;-58
2022/05/25 09:14:30;;;;;;;5.95;3.55;;;921.70;972.80;;;;;;5033416;28;20030;-59
2022/05/25 09:17:00;;;;;;;4.93;3.35;;;896.60;998.40;;;;;;5033313;28;20061;-60
2022/05/25 09:19:34;;;;;;;5.13;3.40;;;921.60;1024.00;;;;;;5033189;28;20022;-58
2022/05/25 09:22:09;;;;;;;5.97;3.97;;;896.80;998.40;;;;;;5032861;28;20058;-60
2022/05/25 09:24:36;;;;;;;6.65;3.45;;;921.70;998.40;;;;;;5030754;28;20021;-58
2022/05/25 09:27:05;;;;;;;5.78;3.50;;;896.60;972.80;;;;;;5011815;28;20073;-58
2022/05/25 09:29:31;;;;;;;7.47;3.45;;;921.70;1049.60;;;;;;5010577;28;20033;-58
2022/05/25 09:32:02;;;;;;;7.38;4.03;;;921.60;1075.20;;;;;;4994616;28;20026;-59
2022/05/25 09:34:53;;;;;;;4.07;2.90;;;896.70;1024.00;;;;;;4991960;28;20488;-59
2022/05/25 09:37:57;;;;;;;5.72;3.10;;;896.70;1024.00;;;;;;4991303;28;20481;-58
2022/05/25 09:40:38;;;;;;;4.80;3.10;;;896.40;1024.00;;;;;;4990949;28;20034;-59
2022/05/25 09:43:08;;;;;;;4.70;3.20;;;896.10;1049.60;;;;;;4996808;28;20033;-58
2022/05/25 09:45:56;;;;;;;6.93;3.78;;;896.10;1049.60;;;;;;5004613;28;20026;-59
2022/05/25 09:48:26;;;;;;;5.53;3.70;;;871.30;1075.20;;;;;;5011286;28;20030;-59
2022/05/25 09:51:21;;;;;;;6.22;3.67;;;871.20;1049.60;;;;;;5010811;28;20477;-58
2022/05/25 09:54:10;;;;;;;9.05;3.45;;;896.50;1049.60;;;;;;4930916;29;20036;-58
2022/05/25 09:56:39;;;;;;;6.70;3.92;;;896.50;1075.20;;;;;;4931325;29;20127;-58
2022/05/25 09:59:14;;;;;;;6.47;3.78;;;896.10;1075.20;;;;;;4931085;29;20046;-58
2022/05/25 10:01:45;;;;;;;6.07;3.25;;;871.20;1049.60;;;;;;4930976;29;20032;-58
2022/05/25 10:04:54;;;;;;;6.38;3.85;;;871.00;1075.20;;;;;;4930534;29;20032;-61
2022/05/25 10:07:35;;;;;;;7.43;4.00;;;871.10;1100.80;;;;;;4929620;29;20086;-58
2022/05/25 10:10:09;;;;;;;5.40;3.50;;;871.10;1100.80;;;;;;4930590;29;20035;-58
2022/05/25 10:12:43;;;;;;;8.18;3.20;;;871.30;1126.40;;;;;;4933145;29;20036;-59
2022/05/25 10:15:14;;;;;;;9.63;4.63;;;896.00;1126.40;;;;;;4932735;29;20063;-58
2022/05/25 10:17:44;;;;;;;4.07;3.20;;;896.30;1049.60;;;;;;4932365;29;20423;-59
2022/05/25 10:20:24;;;;;;;5.40;3.97;;;896.40;1075.20;;;;;;4932288;29;20028;-59
2022/05/25 10:23:00;;;;;;;10.68;3.63;;;896.30;1049.60;;;;;;4932316;29;20028;-58
2022/05/25 10:25:47;;;;;;;7.32;3.42;;;896.20;1152.00;;;;;;4939034;29;20078;-60
2022/05/25 10:28:32;;;;;;;4.72;3.85;;;896.00;1075.20;;;;;;4951486;29;20050;-58
2022/05/25 10:37:08;;;;;;;6.27;3.63;;;871.00;1075.20;;;;;;5022368;28;20080;-60
2022/05/25 10:39:35;;;;;;;6.57;3.53;;;870.70;1075.20;;;;;;5020441;28;20259;-57
2022/05/25 10:42:13;;;;;;;4.18;3.38;;;870.70;1075.20;;;;;;5020036;28;20483;-60
2022/05/25 10:44:42;;;;;;;5.15;3.00;;;870.90;1152.00;;;;;;5018387;28;20049;-58
2022/05/25 10:47:20;;;;;;;4.65;2.95;;;871.10;1100.80;;;;;;5021383;28;20156;-59
2022/05/25 10:49:46;;;;;;;5.00;3.60;;;871.20;1075.20;;;;;;5018952;28;20108;-58
2022/05/25 10:52:17;;;;;;;8.00;3.97;;;871.20;1075.20;;;;;;5020471;28;20188;-57
2022/05/25 10:54:47;;;;;;;5.53;3.40;;;871.20;1075.20;;;;;;5021840;28;20025;-59
2022/05/25 10:57:24;;;;;;;4.50;3.25;;;871.20;1100.80;;;;;;5020538;28;20033;-59
2022/05/25 11:00:06;;;;;;;6.53;4.10;;;871.30;1075.20;;;;;;4991870;28;20038;-59
2022/05/25 11:03:09;;;;;;;6.95;3.10;;;871.30;1100.80;;;;;;4991632;28;20073;-58
2022/05/25 11:06:29;;;;;;;7.82;3.00;;;871.10;1126.40;;;;;;4991820;28;20027;-58
2022/05/25 11:09:21;;;;;;;5.50;3.30;;;871.20;1152.00;;;;;;4932014;29;20032;-58
2022/05/25 11:11:57;;;;;;;5.05;3.55;;;871.20;1152.00;;;;;;4931653;29;20217;-59
2022/05/25 11:14:32;;;;;;;4.05;3.17;;;871.10;1126.40;;;;;;4931947;29;20419;-60
2022/05/25 11:17:17;;;;;;;5.55;3.42;;;871.00;1075.20;;;;;;4931513;29;20055;-59
2022/05/25 11:19:43;;;;;;;4.57;3.30;;;871.10;1152.00;;;;;;4931417;29;20107;-60
2022/05/25 11:22:21;;;;;;;5.35;3.83;;;870.80;1126.40;;;;;;4931432;29;20120;-59
2022/05/25 11:25:31;;;;;;;6.47;4.25;;;870.60;1152.00;;;;;;4931308;29;20554;-59
2022/05/25 11:28:05;;;;;;;6.43;4.03;;;870.70;1152.00;;;;;;4912353;29;20071;-58
2022/05/25 11:30:59;;;;;;;6.10;5.50;;;870.60;1152.00;;;;;;4912298;29;20043;-59
2022/05/25 11:34:02;;;;;;;6.38;4.43;;;845.70;1177.60;;;;;;4912515;29;20087;-60
2022/05/25 11:36:45;;;;;;;5.45;3.80;;;845.70;1177.60;;;;;;4912028;29;20396;-60
2022/05/25 11:39:28;;;;;;;8.63;4.18;;;845.50;1177.60;;;;;;4912322;29;20047;-60
2022/05/25 11:41:57;;;;;;;;;;;845.70;1177.60;;;;;;4917975;28;20032;-59
2022/05/25 11:44:43;;;;;;;5.72;3.90;;;870.50;1177.60;;;;;;4969897;28;20341;-60
2022/05/25 11:47:37;;;;;;;6.78;3.47;;;870.50;1177.60;;;;;;4912093;29;20095;-59
2022/05/25 11:50:28;;;;;;;4.32;3.47;;;870.50;1177.60;;;;;;4912437;29;20495;-60
2022/05/25 11:53:12;;;;;;;5.47;3.65;;;870.50;1177.60;;;;;;4912361;29;20479;-61
2022/05/25 11:55:58;;;;;;;6.45;4.60;;;870.50;1152.00;;;;;;4912048;29;20047;-60
2022/05/25 11:58:37;;;;;;;6.70;4.13;;;870.40;1177.60;;;;;;4912261;29;20044;-60
2022/05/25 12:01:06;;;;;;;7.35;3.80;;;870.60;1177.60;;;;;;4915892;29;20035;-59
2022/05/25 12:03:49;;;;;;;5.68;3.65;;;870.50;1177.60;;;;;;4930775;29;20032;-59
2022/05/25 12:06:35;;;;;;;5.90;3.17;;;870.60;1203.20;;;;;;4931046;29;20036;-60
2022/05/25 12:09:30;;;;;;;6.78;3.65;;;870.70;1177.60;;;;;;4930737;29;20068;-59
2022/05/25 12:12:22;;;;;;;5.22;3.90;;;870.70;1177.60;;;;;;4874466;29;20040;-60
2022/05/25 12:15:12;;;;;;;11.40;3.67;;;870.50;1177.60;;;;;;4874247;29;20029;-59
2022/05/25 12:17:40;;;;;;;6.07;3.28;;;870.50;1152.00;;;;;;4892666;29;20041;-59
2022/05/25 12:20:09;;;;;;;4.45;3.25;;;870.50;1177.60;;;;;;4893092;29;20522;-60
2022/05/25 12:22:37;;;;;;;10.00;3.55;;;870.60;1152.00;;;;;;4893132;29;20140;-58
2022/05/25 12:25:09;;;;;;;8.10;4.43;;;845.70;1177.60;;;;;;4924184;29;20051;-60
2022/05/25 12:27:41;;;;;;;6.07;3.20;;;870.40;1203.20;;;;;;4930753;29;20483;-60
2022/05/25 12:30:11;;;;;;;8.05;4.10;;;845.70;1177.60;;;;;;4931299;29;20032;-59
2022/05/25 12:32:39;;;;;;;5.85;3.90;;;845.70;1177.60;;;;;;4934808;29;20797;-59
2022/05/25 12:35:08;;;;;;;6.13;3.30;;;845.70;1177.60;;;;;;4934639;29;20403;-59
2022/05/25 12:37:43;;;;;;;7.55;3.33;;;870.50;1152.00;;;;;;4934748;29;20040;-60
2022/05/25 12:40:14;;;;;;;6.18;3.30;;;870.60;1152.00;;;;;;4934753;29;20059;-59
2022/05/25 12:42:41;;;;;;;4.38;3.38;;;870.70;1177.60;;;;;;4934614;29;20040;-58
2022/05/25 12:48:32;;;;;;;3.85;3.28;;;845.60;1203.20;;;;;;4962215;28;20081;-60
2022/05/25 12:51:05;;;;;;;5.07;3.45;;;845.40;1203.20;;;;;;4994417;28;20054;-59
2022/05/25 12:53:40;;;;;;;;;;;845.70;1203.20;;;;;;4994384;28;20041;-58
2022/05/25 12:56:19;;;;;;;7.20;3.20;;;845.40;1177.60;;;;;;4994263;28;20422;-59
2022/05/25 12:58:47;;;;;;;4.30;3.13;;;845.60;1177.60;;;;;;4994272;28;20026;-60
2022/05/25 13:01:22;;;;;;;5.28;3.40;;;870.40;1177.60;;;;;;4994336;28;20073;-60
2022/05/25 13:03:48;;;;;;;7.22;3.55;;;870.50;1177.60;;;;;;4993916;28;20448;-60
2022/05/25 13:06:37;;;;;;;4.30;3.50;;;845.40;1203.20;;;;;;4994159;28;20061;-57
2022/05/25 13:09:24;;;;;;;3.50;3.08;;;845.20;1228.80;;;;;;4992051;28;20077;-60
2022/05/25 13:11:53;;;;;;;5.90;3.25;;;844.90;1254.40;;;;;;4993976;28;20061;-60